Airfield :
LOGIN :

Register | Disclaimer

   EN    FR    IT 

 










Legend :    VFR   Marginal VFR   IFR   Intensive IFR   Very Intensive IFR
Visi :
Ceiling :
>= 8 km
>= 3000ft
5 to 8 km
1000 to 3000 ft
1500m to 5 km
500 to 1000 ft
800 to 1500m
200 to 500 ft
< 800m
< 200 ft
Symbols :   Thunderstorms  Fog  Heavy snow  Heavy precipitations  Wind > 20 kt
SIGMETs :     Misc.  Thunderstorms  Icing  Turbulence  Mountain Waves  Volcanic Ashes







- Airport Elevation : 162 ft
- IATA code : BOD
- Download approach charts


LFBD - Bordeaux / Merignac

CURRENT METAR :
  • 161930Z AUTO 29007KT 9999 FEW028 21/16 Q1019 BECMG BKN014

EXPIRED METARs :
  • 161900Z AUTO 29010KT 9999 FEW028 22/16 Q1019 BECMG BKN014
  • 161830Z AUTO 29010KT 9999 BKN030 23/16 Q1019 BECMG BKN014
  • 161800Z AUTO 30012KT 9999 FEW030 23/16 Q1019 BECMG BKN014
  • 161730Z AUTO 29015KT 9999 BKN030 23/16 Q1018 BECMG BKN014
  • 161700Z AUTO 30013KT 9999 BKN029 23/17 Q1018 TEMPO 30015G25KT

TAF TAF LFBD
Valid from the 16 at 18:00 until the 18 at 00:00 UTC


161700Z 1618/1724 30012KT 9999 SCT033 TX29/1714Z TN19/1703Z
BECMG 1619/1621 BKN014
BECMG 1703/1705 VRB03KT BKN020
BECMG 1713/1715 32005KT
ATIS : +33 5 57 92 81 04
No reported NOTAMs for that airfield.
2 SIGMETs reported for the Bordeaux FIR (LFBB) :
 
Embedded thunderstorms
LFBB SIGMET 18 VALID 161800/162000 LFPW
LFBB BORDEAUX FIR/UIR EMBD TS FCST WI N4630 W00015 - N4715 W00015 - N4715 E00030 - N4600 E00115 - N4545 E00000 - N4630 W00015 TOP FL330 MOV E 15KT NC=
Severe turbulence
LFBB SIGMET 16 VALID 161600/162000 LFPW
LFBB BORDEAUX FIR/UIR SEV TURB FCST WI N4315 E00245 - N4230 E00230 - N4300 E00215 - N4315 E00245 SFC/FL060 STNR NC=



MET'MAP, your aeronautical weather chart ! - Copyright ORBIFLY December 2007 - Disclaimer

ORBIFLY MET'MAP TEAM :

Programming & Development : Alexandra Zaïnal
Concept & Development : Baudouin d'Aumeries
Co-Development & Prog : Marc-Olivier Méhu
Technical & hardware support : Manuel Goepfert

Contact : metmap@orbifly.com




SOURCES & CREDITS :

   NOAA